Terminal Aerodrome Forecast
Issued by NWS

Home | Current Version | Previous Version | Text Only | Print | Product List | Glossary On
Versions: 1 2 3 4 5 6 7 8 9 10 11 12 13 14 15 16 17 18 19 20 21 22 23 24 25 26 27 28 29 30 31
000
FTUS43 KDLH 311301 AAA
TAFHIB
TAF AMD
KHIB 311301Z 3113/0112 15003KT P6SM SCT007
     FM311600 20013G20KT P6SM FEW250
     FM010000 20005KT P6SM VCTS SCT040CB BKN120
     FM010800 19004KT 5SM BR BKN040=

USA.gov is the U.S. government's official web portal to all federal, state and local government web resources and services.